Time;durP1;ratioP1;P1;durP2;ratioP2;P2;SDS_P1;SDS_P2;PMS_P1;PMS_P2;Temp;Humidity;BMP_temperature;BMP_pressure;BME280_temperature;BME280_humidity;BME280_pressure;Samples;Min_cycle;Max_cycle;Signal;HPM_P1;HPM_P2
2023/03/02 00:01:58;;;;;;;107.40;55.80;;;;;;;-3.07;61.70;99960.98;108617;1254;94367;-75
2023/03/02 00:04:57;;;;;;;97.70;49.30;;;;;;;-3.13;62.01;99963.77;108580;1253;109490;-75
2023/03/02 00:07:31;;;;;;;101.00;50.20;;;;;;;-3.18;61.92;99958.40;108669;1252;101049;-75
2023/03/02 00:10:02;;;;;;;92.70;49.70;;;;;;;-3.15;62.33;99951.45;108831;1252;105550;-75
2023/03/02 00:12:32;;;;;;;92.10;49.20;;;;;;;-3.12;62.27;99950.39;108823;1253;94234;-75
2023/03/02 00:15:00;;;;;;;84.60;46.40;;;;;;;-3.10;62.00;99951.78;108797;1253;94270;-75
2023/03/02 00:17:28;;;;;;;92.70;49.80;;;;;;;-3.16;62.21;99952.14;108790;1253;109663;-75
2023/03/02 00:20:10;;;;;;;95.90;49.10;;;;;;;-3.21;62.22;99950.95;108860;1253;100499;-75
2023/03/02 00:22:43;;;;;;;100.60;51.20;;;;;;;-3.26;62.03;99947.83;108878;1252;106185;-75
2023/03/02 00:25:14;;;;;;;94.20;49.60;;;;;;;-3.26;62.23;99948.52;108519;1253;94257;-75
2023/03/02 00:27:42;;;;;;;89.70;46.90;;;;;;;-3.27;62.40;99947.14;108795;1253;94216;-75
2023/03/02 00:30:14;;;;;;;91.00;49.60;;;;;;;-3.28;62.23;99945.24;108627;1253;109870;-75
2023/03/02 00:32:44;;;;;;;86.50;47.10;;;;;;;-3.29;62.38;99938.48;108641;1254;100794;-75
2023/03/02 00:35:12;;;;;;;102.40;51.50;;;;;;;-3.27;62.24;99933.61;108541;1254;106662;-74
2023/03/02 00:37:42;;;;;;;102.60;53.70;;;;;;;-3.23;62.35;99937.92;108476;1253;94239;-75
2023/03/02 00:40:10;;;;;;;97.20;51.20;;;;;;;-3.21;62.21;99938.63;108766;1253;94253;-75
2023/03/02 00:42:38;;;;;;;97.80;53.30;;;;;;;-3.27;62.40;99938.46;108846;1252;110020;-75
2023/03/02 00:45:07;;;;;;;98.50;51.90;;;;;;;-3.32;62.29;99935.53;108570;1254;100901;-75
2023/03/02 00:47:36;;;;;;;94.40;50.60;;;;;;;-3.36;62.46;99931.71;108467;1254;107607;-75
2023/03/02 00:50:05;;;;;;;91.70;48.70;;;;;;;-3.39;62.47;99928.61;108504;1254;94284;-75
2023/03/02 00:52:34;;;;;;;101.50;54.90;;;;;;;-3.38;62.38;99923.21;108717;1253;94274;-75
2023/03/02 00:55:02;;;;;;;106.80;56.90;;;;;;;-3.34;62.59;99920.09;108697;1255;109972;-75
2023/03/02 00:57:30;;;;;;;107.10;55.80;;;;;;;-3.31;62.57;99920.62;108914;1252;100998;-75
2023/03/02 01:00:00;;;;;;;101.50;53.70;;;;;;;-3.30;62.58;99916.27;108868;1252;107684;-75
2023/03/02 01:02:28;;;;;;;100.10;54.10;;;;;;;-3.36;62.50;99918.02;108930;1251;94205;-75
2023/03/02 01:04:56;;;;;;;104.80;55.20;;;;;;;-3.36;62.51;99918.89;108906;1253;94205;-75
2023/03/02 01:07:27;;;;;;;107.40;57.50;;;;;;;-3.34;62.64;99916.11;108597;1253;109884;-75
2023/03/02 01:09:57;;;;;;;99.40;53.10;;;;;;;-3.33;62.73;99914.20;108900;1253;101289;-75
2023/03/02 01:12:25;;;;;;;101.60;55.50;;;;;;;-3.38;62.54;99909.69;108595;1253;107604;-75
2023/03/02 01:14:59;;;;;;;107.30;56.90;;;;;;;-3.41;62.75;99905.36;108871;1253;94399;-76
2023/03/02 01:17:27;;;;;;;96.40;51.90;;;;;;;-3.43;62.60;99910.74;108579;1253;94213;-75
2023/03/02 01:19:56;;;;;;;98.10;53.20;;;;;;;-3.49;62.60;99905.55;108623;1253;109891;-75
2023/03/02 01:22:24;;;;;;;102.60;56.50;;;;;;;-3.50;62.76;99903.65;108864;1253;100927;-75
2023/03/02 01:24:52;;;;;;;105.00;57.70;;;;;;;-3.48;62.80;99901.92;108855;1253;107280;-75
2023/03/02 01:27:21;;;;;;;102.00;57.40;;;;;;;-3.47;62.90;99902.60;108829;1253;94270;-75
2023/03/02 01:29:49;;;;;;;98.40;55.90;;;;;;;-3.47;62.72;99897.58;108803;1253;94289;-75
2023/03/02 01:32:17;;;;;;;108.10;59.00;;;;;;;-3.50;62.74;99893.94;108817;1253;110002;-76
2023/03/02 01:34:45;;;;;;;99.90;54.60;;;;;;;-3.49;62.79;99892.73;108932;1252;102656;-75
2023/03/02 01:37:13;;;;;;;105.80;59.80;;;;;;;-3.49;62.93;99890.47;108854;1252;107732;-75
2023/03/02 01:39:41;;;;;;;101.10;55.90;;;;;;;-3.53;62.92;99887.53;108904;1253;94179;-75
2023/03/02 01:42:09;;;;;;;94.60;52.70;;;;;;;-3.57;62.82;99881.30;108838;1253;94228;-75
2023/03/02 01:44:39;;;;;;;98.90;53.90;;;;;;;-3.59;62.74;99874.02;108876;1253;109886;-75
2023/03/02 01:47:24;;;;;;;105.90;54.20;;;;;;;-3.56;62.91;99870.72;108852;1253;100888;-75
2023/03/02 01:50:25;;;;;;;105.80;55.10;;;;;;;-3.53;63.01;99874.17;108708;1254;107657;-75
2023/03/02 01:52:54;;;;;;;99.90;51.30;;;;;;;-3.58;62.75;99869.16;108745;1253;94307;-75
2023/03/02 01:55:26;;;;;;;114.00;61.60;;;;;;;-3.61;63.13;99867.79;108853;1252;94249;-75
2023/03/02 01:57:57;;;;;;;131.60;67.90;;;;;;;-3.63;62.92;99872.10;108846;1253;109925;-75
2023/03/02 02:00:28;;;;;;;128.30;67.50;;;;;;;-3.70;62.71;99875.42;108893;1253;100615;-75
2023/03/02 02:03:07;;;;;;;158.60;77.00;;;;;;;-3.71;62.84;99875.95;108842;1252;105643;-84
2023/03/02 02:06:09;;;;;;;145.70;75.40;;;;;;;-3.69;63.08;99869.36;108747;1254;94314;-75
2023/03/02 02:08:38;;;;;;;145.60;74.50;;;;;;;-3.67;62.94;99870.56;108938;1253;94241;-75
2023/03/02 02:11:06;;;;;;;156.20;81.70;;;;;;;-3.69;62.95;99874.04;108856;1253;109482;-75
2023/03/02 02:13:34;;;;;;;159.70;80.70;;;;;;;-3.68;63.04;99872.82;108949;1253;100677;-75
2023/03/02 02:16:03;;;;;;;150.20;72.50;;;;;;;-3.67;63.10;99870.39;108878;1253;107635;-75
2023/03/02 02:18:32;;;;;;;142.30;73.00;;;;;;;-3.69;63.24;99870.23;108925;1253;94188;-75
2023/03/02 02:21:00;;;;;;;150.10;74.00;;;;;;;-3.74;63.11;99867.80;108708;1252;94448;-76
2023/03/02 02:23:53;;;;;;;133.50;67.80;;;;;;;-3.79;63.12;99870.40;108929;1253;108527;-75
2023/03/02 02:26:27;;;;;;;162.70;80.70;;;;;;;-3.79;63.40;99869.89;108896;1253;100928;-75
2023/03/02 02:29:06;;;;;;;152.10;77.10;;;;;;;-3.77;63.21;99868.14;108885;1253;107695;-75
2023/03/02 02:31:59;;;;;;;152.20;75.50;;;;;;;-3.75;63.28;99868.15;108876;1253;94231;-75
2023/03/02 02:34:34;;;;;;;141.60;74.80;;;;;;;-3.75;63.37;99866.23;108827;1254;94241;-75
2023/03/02 02:37:19;;;;;;;142.20;71.40;;;;;;;-3.78;63.26;99864.69;108897;1253;109923;-75
2023/03/02 02:40:12;;;;;;;171.00;85.10;;;;;;;-3.80;63.40;99864.17;108899;1253;99125;-75
2023/03/02 02:42:44;;;;;;;207.40;93.30;;;;;;;-3.84;63.57;99864.68;108894;1254;107669;-75
2023/03/02 02:45:21;;;;;;;203.30;93.30;;;;;;;-3.86;63.18;99863.31;108722;1253;94312;-75
2023/03/02 02:47:51;;;;;;;194.10;91.60;;;;;;;-3.90;63.24;99863.31;108655;1253;94315;-75
2023/03/02 02:50:28;;;;;;;216.90;98.50;;;;;;;-3.89;63.69;99857.25;108834;1253;110015;-76
2023/03/02 02:53:26;;;;;;;214.20;102.20;;;;;;;-3.88;63.58;99856.39;108872;1253;100889;-75
2023/03/02 02:55:57;;;;;;;203.10;94.30;;;;;;;-3.88;63.55;99856.04;108855;1253;106145;-75
2023/03/02 02:58:55;;;;;;;182.80;88.30;;;;;;;-3.88;63.62;99855.70;108522;1252;94278;-75
2023/03/02 03:01:24;;;;;;;174.00;83.60;;;;;;;-3.91;63.48;99850.66;108685;1253;94302;-76
2023/03/02 03:04:00;;;;;;;169.30;81.10;;;;;;;-3.92;63.59;99851.19;108591;1253;109914;-75
2023/03/02 03:06:37;;;;;;;154.30;74.80;;;;;;;-3.92;63.40;99850.84;108907;1253;100586;-75
2023/03/02 03:09:11;;;;;;;165.90;81.00;;;;;;;-3.95;63.56;99848.59;108767;1253;107373;-75
2023/03/02 03:11:44;;;;;;;158.30;77.10;;;;;;;-3.93;63.67;99846.68;108534;1253;94287;-75
2023/03/02 03:14:38;;;;;;;151.40;74.20;;;;;;;-3.90;63.67;99841.48;108572;1253;94324;-75
2023/03/02 03:17:10;;;;;;;143.30;71.60;;;;;;;-3.92;63.76;99842.35;108857;1253;109939;-75
2023/03/02 03:19:46;;;;;;;129.90;66.00;;;;;;;-3.92;63.68;99842.53;108612;1252;101081;-75
2023/03/02 03:22:15;;;;;;;134.30;69.00;;;;;;;-3.91;63.83;99846.16;108498;1253;106686;-80
2023/03/02 03:24:47;;;;;;;130.90;66.90;;;;;;;-3.89;63.92;99845.64;108610;1254;94716;-75
2023/03/02 03:27:15;;;;;;;121.80;63.30;;;;;;;-3.88;63.71;99845.81;108861;1253;94305;-76
2023/03/02 03:29:49;;;;;;;114.60;58.90;;;;;;;-3.93;63.89;99842.87;108909;1253;109982;-75
2023/03/02 03:32:17;;;;;;;111.00;56.10;;;;;;;-3.98;63.77;99837.85;108559;1254;100917;-75
2023/03/02 03:34:46;;;;;;;120.20;62.90;;;;;;;-4.04;63.71;99836.81;108903;1253;107413;-75
2023/03/02 03:37:16;;;;;;;115.90;61.40;;;;;;;-4.08;63.69;99838.56;108832;1252;94197;-75
2023/03/02 03:39:44;;;;;;;111.50;57.70;;;;;;;-4.09;63.69;99835.44;108855;1252;94201;-76
2023/03/02 03:42:12;;;;;;;107.20;54.50;;;;;;;-4.10;63.79;99834.74;108830;1253;109958;-75
2023/03/02 03:44:41;;;;;;;109.70;57.10;;;;;;;-4.04;64.14;99834.55;108836;1253;100657;-75
2023/03/02 03:47:08;;;;;;;110.80;56.20;;;;;;;-4.04;63.77;99833.87;108600;1253;107269;-75
2023/03/02 03:49:37;;;;;;;101.40;51.90;;;;;;;-4.08;63.83;99833.70;108500;1253;94258;-75
2023/03/02 03:52:05;;;;;;;103.10;53.90;;;;;;;-4.11;63.72;99830.58;108654;1252;94274;-75
2023/03/02 03:54:33;;;;;;;98.00;52.60;;;;;;;-4.14;63.86;99834.05;108548;1254;109888;-75
2023/03/02 03:57:01;;;;;;;103.60;56.50;;;;;;;-4.12;63.99;99836.83;108528;1253;101088;-75
2023/03/02 03:59:29;;;;;;;100.60;52.50;;;;;;;-4.07;63.89;99832.30;108640;1254;107454;-75
2023/03/02 04:01:59;;;;;;;100.40;53.20;;;;;;;-4.08;63.83;99833.01;108612;1256;94229;-75
2023/03/02 04:04:31;;;;;;;102.70;53.90;;;;;;;-4.15;63.95;99834.40;108542;1254;94268;-75
2023/03/02 04:06:59;;;;;;;110.90;58.70;;;;;;;-4.19;64.02;99833.53;108564;1254;109673;-75
2023/03/02 04:09:27;;;;;;;101.20;54.20;;;;;;;-4.17;64.01;99829.20;108549;1254;100557;-75
2023/03/02 04:11:56;;;;;;;100.60;55.20;;;;;;;-4.16;63.91;99824.87;108433;1254;107252;-75
2023/03/02 04:14:24;;;;;;;108.80;56.50;;;;;;;-4.16;63.91;99821.92;108402;1256;94614;-75
2023/03/02 04:16:52;;;;;;;102.50;55.30;;;;;;;-4.12;64.16;99825.55;108529;1254;94264;-75
2023/03/02 04:19:24;;;;;;;95.90;52.00;;;;;;;-4.11;64.06;99826.95;108548;1254;109950;-76
2023/03/02 04:21:53;;;;;;;98.10;52.30;;;;;;;-4.17;64.08;99826.95;108654;1255;100647;-75
2023/03/02 04:24:23;;;;;;;90.80;48.40;;;;;;;-4.22;64.10;99830.76;108616;1255;107758;-75
2023/03/02 04:26:50;;;;;;;94.30;49.70;;;;;;;-4.25;64.05;99831.45;108527;1254;94346;-75
2023/03/02 04:29:19;;;;;;;92.80;48.90;;;;;;;-4.27;63.97;99830.76;108809;1253;94283;-75
2023/03/02 04:31:47;;;;;;;104.10;53.80;;;;;;;-4.25;64.29;99827.81;108553;1255;109669;-75
2023/03/02 04:34:15;;;;;;;98.90;52.10;;;;;;;-4.19;64.25;99824.69;108801;1254;100940;-83
2023/03/02 04:36:43;;;;;;;99.10;52.60;;;;;;;-4.19;64.10;99820.70;108509;1255;107907;-75
2023/03/02 04:39:14;;;;;;;97.10;50.30;;;;;;;-4.20;64.00;99821.41;108754;1254;94280;-75
2023/03/02 04:41:42;;;;;;;97.80;50.90;;;;;;;-4.23;64.20;99818.46;108567;1254;94347;-80
2023/03/02 04:44:12;;;;;;;103.20;53.30;;;;;;;-4.23;64.41;99821.23;108817;1256;109903;-75
2023/03/02 04:46:43;;;;;;;106.00;53.10;;;;;;;-4.22;64.28;99813.77;108517;1254;101414;-75
2023/03/02 04:49:17;;;;;;;106.40;55.40;;;;;;;-4.25;64.23;99809.45;108418;1254;108503;-75
2023/03/02 04:51:51;;;;;;;121.20;61.10;;;;;;;-4.24;64.35;99803.73;108270;1253;94685;-76
2023/03/02 04:54:25;;;;;;;130.60;64.50;;;;;;;-4.20;64.32;99800.80;108510;1254;94538;-76
2023/03/02 04:56:53;;;;;;;124.20;59.30;;;;;;;-4.17;64.38;99800.45;108512;1251;109204;-76
2023/03/02 04:59:27;;;;;;;115.00;60.20;;;;;;;-4.15;64.33;99797.84;108764;1252;100900;-81
2023/03/02 05:01:58;;;;;;;120.90;62.20;;;;;;;-4.14;64.41;99794.20;108435;1253;107464;-75
2023/03/02 05:04:27;;;;;;;113.40;57.60;;;;;;;-4.15;64.40;99797.86;108540;1253;94746;-75
2023/03/02 05:06:56;;;;;;;118.90;58.40;;;;;;;-4.15;64.63;99798.73;108671;1253;94457;-78
2023/03/02 05:09:29;;;;;;;105.50;54.10;;;;;;;-4.15;64.46;99799.23;108628;1253;110114;-75
2023/03/02 05:11:59;;;;;;;106.90;52.50;;;;;;;-4.19;64.40;99798.71;108497;1253;101073;-75
2023/03/02 05:14:31;;;;;;;104.50;56.00;;;;;;;-4.23;64.30;99805.12;108678;1253;109489;-75
2023/03/02 05:16:59;;;;;;;108.00;54.10;;;;;;;-4.27;64.25;99808.41;108479;1253;94631;-76
2023/03/02 05:19:28;;;;;;;110.80;57.70;;;;;;;-4.26;64.40;99805.81;108511;1253;94501;-75
2023/03/02 05:21:56;;;;;;;111.00;56.20;;;;;;;-4.28;64.44;99808.60;108850;1253;109028;-75
2023/03/02 05:24:24;;;;;;;110.30;58.10;;;;;;;-4.27;64.53;99807.71;108533;1253;100904;-75
2023/03/02 05:26:52;;;;;;;111.20;56.50;;;;;;;-4.24;64.43;99812.05;108610;1253;107534;-75
2023/03/02 05:29:20;;;;;;;114.50;57.20;;;;;;;-4.23;64.35;99814.30;108800;1253;94254;-75
2023/03/02 05:32:11;;;;;;;112.70;59.60;;;;;;;-4.21;64.70;99812.05;108798;1253;94305;-75
2023/03/02 05:34:39;;;;;;;108.70;57.10;;;;;;;-4.19;64.63;99819.34;108582;1256;109975;-75
2023/03/02 05:37:08;;;;;;;113.40;58.40;;;;;;;-4.17;64.50;99820.19;108546;1253;99452;-75
2023/03/02 05:39:36;;;;;;;123.10;64.30;;;;;;;-4.15;64.69;99816.04;108624;1253;107182;-75
2023/03/02 05:42:04;;;;;;;119.70;62.30;;;;;;;-4.08;64.74;99817.42;108597;1253;94291;-75
2023/03/02 05:44:33;;;;;;;110.80;57.60;;;;;;;-3.97;64.82;99818.61;108628;1253;94243;-75
2023/03/02 05:47:00;;;;;;;108.90;54.70;;;;;;;-3.96;64.62;99822.25;108746;1253;110034;-75
2023/03/02 05:49:28;;;;;;;108.30;57.60;;;;;;;-3.96;64.72;99823.46;108891;1253;100943;-75
2023/03/02 05:51:57;;;;;;;108.30;54.70;;;;;;;-3.95;64.88;99819.32;108668;1253;107469;-75
2023/03/02 05:54:25;;;;;;;108.10;58.40;;;;;;;-3.93;64.58;99821.05;108612;1253;94256;-75
2023/03/02 05:56:53;;;;;;;121.90;62.40;;;;;;;-3.90;64.75;99825.72;108848;1254;94217;-75
2023/03/02 05:59:21;;;;;;;121.80;66.60;;;;;;;-3.81;65.06;99827.24;108829;1253;109898;-75
2023/03/02 06:01:49;;;;;;;141.30;76.00;;;;;;;-3.72;64.80;99830.36;108895;1253;100868;-75
2023/03/02 06:04:17;;;;;;;139.50;72.40;;;;;;;-3.69;65.18;99839.38;108819;1253;107224;-75
2023/03/02 06:06:46;;;;;;;153.90;84.10;;;;;;;-3.64;65.11;99835.53;108603;1253;209561;-75
2023/03/02 06:09:21;;;;;;;157.00;83.60;;;;;;;-3.61;65.09;99835.52;108728;1254;94321;-80
2023/03/02 06:11:49;;;;;;;150.40;80.80;;;;;;;-3.54;65.02;99845.40;108637;1253;109884;-76
2023/03/02 06:14:17;;;;;;;166.70;88.50;;;;;;;-3.48;65.34;99845.04;108822;1253;100869;-75
2023/03/02 06:16:48;;;;;;;175.00;92.30;;;;;;;-3.42;65.12;99846.73;108803;1253;107078;-76
2023/03/02 06:19:16;;;;;;;175.90;91.40;;;;;;;-3.36;65.40;99844.47;108602;1254;94552;-76
2023/03/02 06:21:44;;;;;;;188.60;98.90;;;;;;;-3.30;65.11;99845.15;108860;1254;94328;-75
2023/03/02 06:24:12;;;;;;;183.90;97.10;;;;;;;-3.23;64.93;99843.90;108682;1253;109572;-76
2023/03/02 06:26:40;;;;;;;172.30;95.30;;;;;;;-3.18;65.38;99845.44;108713;1253;99474;-82
2023/03/02 06:29:10;;;;;;;168.20;92.40;;;;;;;-3.13;65.29;99841.96;108646;1253;107657;-79
2023/03/02 06:31:40;;;;;;;158.30;86.00;;;;;;;-3.06;65.28;99845.05;108503;1253;94428;-79
2023/03/02 06:34:11;;;;;;;151.20;85.90;;;;;;;-3.01;65.45;99842.26;108842;1254;94511;-76
2023/03/02 06:36:39;;;;;;;158.50;87.70;;;;;;;-2.95;65.65;99846.90;108514;1259;109448;-75
2023/03/02 06:39:14;;;;;;;191.10;99.90;;;;;;;-2.87;65.66;99844.79;108604;1253;100876;-77
2023/03/02 06:41:47;;;;;;;195.60;107.20;;;;;;;-2.73;65.78;99847.15;108688;1254;107844;-78
2023/03/02 06:44:16;;;;;;;156.70;87.80;;;;;;;-2.60;65.85;99851.40;108722;1253;95058;-80
2023/03/02 06:46:45;;;;;;;152.00;86.30;;;;;;;-2.49;66.04;99852.38;108645;1255;94280;-78
2023/03/02 06:49:13;;;;;;;175.70;98.30;;;;;;;-2.44;65.72;99850.08;108692;1254;110011;-80
2023/03/02 06:51:41;;;;;;;154.40;88.30;;;;;;;-2.37;65.71;99852.81;108375;1253;101028;-79
2023/03/02 06:54:09;;;;;;;183.20;99.90;;;;;;;-2.33;66.06;99851.91;108578;1255;107255;-82
2023/03/02 06:56:37;;;;;;;164.90;91.40;;;;;;;-2.27;65.84;99852.91;108565;1257;94579;-79
2023/03/02 06:59:07;;;;;;;164.10;93.00;;;;;;;-2.20;66.09;99854.60;108291;1258;94879;-79
2023/03/02 07:01:36;;;;;;;166.60;92.20;;;;;;;-2.16;65.94;99852.83;108399;1258;109541;-80
2023/03/02 07:04:04;;;;;;;167.70;93.60;;;;;;;-2.11;66.24;99852.79;108510;1254;101022;-79
2023/03/02 07:06:34;;;;;;;173.10;98.70;;;;;;;-2.03;65.99;99859.15;108673;1255;107378;-79
2023/03/02 07:09:03;;;;;;;167.20;97.00;;;;;;;-1.95;66.17;99859.42;108443;1260;94249;-79
2023/03/02 07:11:31;;;;;;;171.50;96.70;;;;;;;-1.90;65.99;99856.61;108768;1253;94244;-80
2023/03/02 07:14:00;;;;;;;178.80;101.00;;;;;;;-1.85;66.12;99852.91;108676;1257;109916;-79
2023/03/02 07:16:29;;;;;;;182.60;102.60;;;;;;;-1.79;66.09;99854.76;108656;1254;100925;-79
2023/03/02 07:18:58;;;;;;;187.90;104.80;;;;;;;-1.69;66.37;99853.11;108710;1254;107196;-77
2023/03/02 07:21:26;;;;;;;197.70;110.00;;;;;;;-1.59;66.20;99848.30;108688;1254;94290;-78
2023/03/02 07:23:54;;;;;;;198.00;115.60;;;;;;;-1.49;66.38;99848.72;108730;1254;94564;-79
2023/03/02 07:26:25;;;;;;;217.80;118.00;;;;;;;-1.40;66.35;99849.67;108356;1254;110069;-82
2023/03/02 07:28:53;;;;;;;222.10;119.10;;;;;;;-1.31;66.38;99850.09;108715;1254;101379;-79
2023/03/02 07:31:22;;;;;;;209.00;117.70;;;;;;;-1.23;66.31;99854.00;108310;1254;108196;-79
2023/03/02 07:33:49;;;;;;;188.80;112.50;;;;;;;-1.15;66.49;99851.65;108448;1254;94382;-77
2023/03/02 07:36:17;;;;;;;203.70;118.30;;;;;;;-1.07;66.46;99848.43;108495;1257;94314;-79
2023/03/02 07:38:45;;;;;;;186.70;106.90;;;;;;;-1.00;66.56;99842.93;108690;1254;109311;-77
2023/03/02 07:41:15;;;;;;;198.10;111.40;;;;;;;-0.94;66.44;99841.64;108671;1256;99522;-77
2023/03/02 07:43:44;;;;;;;190.10;109.00;;;;;;;-0.88;66.46;99839.98;108468;1254;107663;-78
2023/03/02 07:46:12;;;;;;;174.10;101.00;;;;;;;-0.80;66.43;99840.77;108647;1253;94629;-77
2023/03/02 07:48:40;;;;;;;158.90;97.10;;;;;;;-0.73;66.55;99838.23;108603;1254;94409;-80
2023/03/02 07:51:08;;;;;;;134.30;77.20;;;;;;;-0.66;66.48;99839.69;108484;1254;108846;-78
2023/03/02 07:53:36;;;;;;;153.70;88.50;;;;;;;-0.58;66.47;99840.09;108762;1253;101007;-77
2023/03/02 07:56:11;;;;;;;126.90;68.30;;;;;;;-0.52;66.48;99840.02;108737;1252;107527;-79
2023/03/02 07:58:40;;;;;;;113.20;63.20;;;;;;;-0.43;66.38;99837.44;108830;1253;94266;-77
2023/03/02 08:01:08;;;;;;;98.80;55.70;;;;;;;-0.34;66.55;99836.95;108643;1253;94286;-77
2023/03/02 08:03:35;;;;;;;94.90;54.40;;;;;;;-0.26;66.43;99835.80;108865;1254;109448;-77
2023/03/02 08:06:10;;;;;;;99.40;53.20;;;;;;;-0.18;66.33;99835.83;108836;1253;100627;-77
2023/03/02 08:08:37;;;;;;;88.40;51.00;;;;;;;-0.10;66.50;99829.77;108644;1254;107628;-77
2023/03/02 08:11:11;;;;;;;94.10;53.00;;;;;;;-0.04;66.38;99829.85;108747;1254;94348;-77
2023/03/02 08:13:39;;;;;;;99.00;57.60;;;;;;;0.01;66.38;99826.80;108786;1254;94336;-76
2023/03/02 08:16:09;;;;;;;98.60;56.50;;;;;;;0.05;66.52;99822.55;108876;1253;108586;-77
2023/03/02 08:18:38;;;;;;;93.60;54.30;;;;;;;0.10;66.38;99826.30;108594;1253;100904;-80
2023/03/02 08:21:19;;;;;;;95.70;53.10;;;;;;;0.15;66.39;99821.31;108561;1253;107630;-79
2023/03/02 08:23:47;;;;;;;90.40;52.80;;;;;;;0.21;66.44;99816.33;108800;1254;94348;-79
2023/03/02 08:26:17;;;;;;;94.60;54.60;;;;;;;0.27;66.43;99815.00;108758;1254;94698;-81
2023/03/02 08:28:46;;;;;;;84.70;49.90;;;;;;;0.34;66.48;99814.70;108875;1254;109987;-80
2023/03/02 08:31:15;;;;;;;83.30;47.80;;;;;;;0.39;66.37;99809.54;108650;1254;100284;-78
2023/03/02 08:33:44;;;;;;;85.50;48.80;;;;;;;0.45;66.51;99805.59;108660;1254;107391;-80
2023/03/02 08:36:15;;;;;;;84.20;48.50;;;;;;;0.51;66.65;99806.70;108695;1253;94394;-77
2023/03/02 08:38:43;;;;;;;87.20;50.90;;;;;;;0.56;66.49;99800.84;108585;1254;94595;-77
2023/03/02 08:41:15;;;;;;;85.90;50.90;;;;;;;0.60;66.50;99807.76;108764;1254;109032;-78
2023/03/02 08:43:44;;;;;;;83.60;51.10;;;;;;;0.65;66.44;99810.61;108799;1253;100916;-77
2023/03/02 08:46:15;;;;;;;78.40;46.80;;;;;;;0.70;66.60;99809.64;108807;1253;108096;-76
2023/03/02 08:48:45;;;;;;;76.80;45.00;;;;;;;0.76;66.59;99800.10;108586;1255;94313;-76
2023/03/02 08:51:22;;;;;;;74.80;42.80;;;;;;;0.82;66.33;99799.44;108649;1252;94367;-79
2023/03/02 08:53:55;;;;;;;75.90;44.00;;;;;;;0.87;66.45;99798.65;108644;1253;109912;-76
2023/03/02 08:56:32;;;;;;;76.70;45.10;;;;;;;0.92;66.39;99804.30;108726;1254;100876;-67
2023/03/02 08:59:09;;;;;;;83.60;46.80;;;;;;;0.96;66.54;99801.42;108776;1253;106188;-82
2023/03/02 09:01:39;;;;;;;88.30;48.70;;;;;;;1.01;66.51;99796.60;108695;1254;94402;-78
2023/03/02 09:04:09;;;;;;;76.10;43.80;;;;;;;1.07;66.50;99793.84;108674;1254;94344;-79
2023/03/02 09:06:40;;;;;;;77.30;43.20;;;;;;;1.14;66.40;99793.00;108664;1253;110028;-78
2023/03/02 09:09:10;;;;;;;74.50;42.20;;;;;;;1.19;66.44;99794.98;108733;1253;102120;-77
2023/03/02 09:11:38;;;;;;;79.30;46.20;;;;;;;1.27;66.55;99795.51;108713;1252;107689;-78
2023/03/02 09:14:06;;;;;;;76.90;44.60;;;;;;;1.34;66.55;99795.35;108809;1254;94663;-78
2023/03/02 09:16:34;;;;;;;77.20;45.80;;;;;;;1.42;66.51;99791.15;108701;1254;94280;-77
2023/03/02 09:19:02;;;;;;;73.60;43.40;;;;;;;1.50;66.27;99790.61;108770;1252;110248;-77
2023/03/02 09:21:30;;;;;;;74.30;42.10;;;;;;;1.58;66.30;99792.34;108880;1253;98780;-77
2023/03/02 09:23:59;;;;;;;77.30;41.70;;;;;;;1.65;66.16;99789.02;108782;1253;107681;-79
2023/03/02 09:26:27;;;;;;;78.40;44.20;;;;;;;1.71;66.50;99783.45;108534;1253;94429;-79
2023/03/02 09:28:55;;;;;;;74.10;44.80;;;;;;;1.76;66.44;99783.16;108887;1253;94281;-79
2023/03/02 09:31:23;;;;;;;69.60;42.30;;;;;;;1.81;66.69;99779.90;108868;1253;108946;-79
2023/03/02 09:34:04;;;;;;;72.90;41.00;;;;;;;1.87;66.51;99777.11;108745;1253;100638;-81
2023/03/02 09:36:35;;;;;;;72.90;41.90;;;;;;;1.91;66.50;99774.02;108797;1253;107656;-84
2023/03/02 09:39:08;;;;;;;75.70;42.80;;;;;;;1.97;66.47;99767.05;108667;1254;94305;-77
2023/03/02 09:42:31;;;;;;;73.40;42.00;;;;;;;2.03;66.26;99768.66;108811;1253;94521;-80
2023/03/02 09:45:36;;;;;;;67.90;38.00;;;;;;;2.14;66.67;99766.25;108801;1253;109971;-79
2023/03/02 09:48:15;;;;;;;70.80;39.10;;;;;;;2.19;66.63;99766.98;108828;1253;102070;-77
2023/03/02 09:51:14;;;;;;;70.80;40.60;;;;;;;2.26;66.42;99765.58;108802;1252;107555;-80
2023/03/02 09:54:28;;;;;;;62.80;37.80;;;;;;;2.34;65.92;99763.81;108726;1252;94334;-77
2023/03/02 09:56:58;;;;;;;64.50;35.50;;;;;;;2.40;66.10;99760.67;108849;1254;94211;-77
2023/03/02 09:59:37;;;;;;;58.10;32.40;;;;;;;2.43;66.14;99757.09;108812;1253;109864;-81
2023/03/02 10:02:36;;;;;;;57.00;32.00;;;;;;;2.47;66.21;99756.60;108844;1254;99980;-81
2023/03/02 10:05:13;;;;;;;56.20;31.00;;;;;;;2.50;66.16;99754.42;108642;1253;109443;-79
2023/03/02 10:07:50;;;;;;;53.20;28.90;;;;;;;2.55;65.61;99752.35;108836;1254;94473;-84
2023/03/02 10:10:42;;;;;;;51.60;28.10;;;;;;;2.64;65.98;99750.70;108815;1253;94304;-77
2023/03/02 10:13:42;;;;;;;51.20;26.40;;;;;;;2.67;65.79;99749.05;108855;1253;109500;-76
2023/03/02 10:16:29;;;;;;;43.60;22.50;;;;;;;2.66;65.73;99751.69;108723;1253;100136;-77
2023/03/02 10:19:24;;;;;;;44.10;24.60;;;;;;;2.69;65.52;99750.73;108821;1253;107646;-77
2023/03/02 10:22:02;;;;;;;56.80;30.60;;;;;;;2.73;65.96;99749.40;108824;1253;94352;-77
2023/03/02 10:24:38;;;;;;;43.60;23.10;;;;;;;2.77;65.41;99748.40;108846;1253;94389;-80
2023/03/02 10:27:21;;;;;;;35.50;18.70;;;;;;;2.84;65.03;99746.47;108762;1253;110082;-77
2023/03/02 10:30:05;;;;;;;40.60;20.10;;;;;;;2.88;65.52;99744.76;108851;1253;100912;-78
2023/03/02 10:32:40;;;;;;;;;;;;;;;2.87;64.82;99744.59;108835;1252;107657;-77
2023/03/02 10:35:19;;;;;;;50.50;26.60;;;;;;;2.90;65.15;99736.09;108825;1253;94626;-79
2023/03/02 10:37:50;;;;;;;45.60;25.10;;;;;;;2.94;65.39;99736.52;108691;1253;94245;-79
2023/03/02 10:41:05;;;;;;;41.00;21.40;;;;;;;2.96;65.26;99736.11;108796;1253;111572;-76
2023/03/02 10:43:45;;;;;;;44.50;22.60;;;;;;;3.00;65.41;99729.66;108596;1253;100502;-80
2023/03/02 10:46:16;;;;;;;;;;;;;;;3.00;65.35;99728.29;108700;1253;107498;-76
2023/03/02 10:48:57;;;;;;;39.30;19.70;;;;;;;2.97;65.47;99726.77;108714;1252;94287;-76
2023/03/02 10:51:33;;;;;;;44.00;23.30;;;;;;;2.99;65.14;99729.88;108640;1252;94726;-78
2023/03/02 10:54:09;;;;;;;47.80;26.20;;;;;;;3.07;65.42;99723.67;108674;1251;109494;-85
2023/03/02 10:56:41;;;;;;;48.40;26.00;;;;;;;3.13;65.21;99722.77;108697;1253;100669;-85
2023/03/02 10:59:27;;;;;;;45.80;27.80;;;;;;;3.17;65.24;99716.01;108781;1252;107651;-79
2023/03/02 11:02:12;;;;;;;51.30;28.10;;;;;;;3.19;65.41;99713.82;108780;1252;94227;-77
2023/03/02 11:04:40;;;;;;;47.90;24.60;;;;;;;3.20;65.19;99711.86;108744;1252;94289;-75
2023/03/02 11:10:18;;;;;;;50.90;30.40;;;;;;;3.37;65.39;99703.27;108671;1253;99203;-77
2023/03/02 11:12:50;;;;;;;55.10;31.00;;;;;;;3.40;65.41;99699.30;108779;1253;107675;-77
2023/03/02 11:15:34;;;;;;;50.60;29.30;;;;;;;3.45;64.99;99698.43;108783;1252;94228;-77
2023/03/02 11:18:02;;;;;;;;;;;;;;;3.53;65.28;99691.50;108673;1252;94363;-80
2023/03/02 11:20:35;;;;;;;45.60;25.00;;;;;;;3.57;65.15;99686.81;108784;1255;111160;-82
2023/03/02 11:23:31;;;;;;;44.90;24.80;;;;;;;3.63;65.26;99680.15;108788;1253;100922;-81
2023/03/02 11:26:20;;;;;;;46.60;26.50;;;;;;;3.65;64.98;99681.11;108771;1252;107602;-81
2023/03/02 11:28:58;;;;;;;52.40;28.60;;;;;;;3.69;65.15;99675.36;108740;1252;94224;-81
2023/03/02 11:31:40;;;;;;;53.00;28.50;;;;;;;3.72;64.80;99672.98;108746;1252;94334;-78